createdAt,value
2017-11-12T00:09:57.991Z,37.90
2017-11-12T00:20:01.261Z,43.13
2017-11-12T00:30:04.459Z,32.03
2017-11-12T00:40:07.633Z,41.03
2017-11-12T00:50:10.820Z,38.50
2017-11-12T01:00:13.990Z,43.50
2017-11-12T01:10:17.183Z,43.80
2017-11-12T01:20:20.371Z,33.33
2017-11-12T01:30:23.543Z,44.83
2017-11-12T01:40:27.526Z,39.07
2017-11-12T01:50:30.725Z,35.53
2017-11-12T02:00:34.026Z,40.33
2017-11-12T02:10:37.223Z,31.27
2017-11-12T02:20:40.372Z,36.60
2017-11-12T02:30:43.543Z,35.07
2017-11-12T02:40:46.714Z,30.57
2017-11-12T02:50:49.856Z,37.03
2017-11-12T03:00:53.026Z,42.80
2017-11-12T03:10:56.191Z,36.67
2017-11-12T03:20:59.719Z,44.83
2017-11-12T03:31:02.888Z,30.83
2017-11-12T03:41:06.125Z,35.83
2017-11-12T03:51:09.272Z,34.73
2017-11-12T04:01:12.443Z,36.85
2017-11-12T04:11:16.365Z,34.17
2017-11-12T04:21:20.316Z,36.70
2017-11-12T04:31:23.518Z,46.33
2017-11-12T04:41:26.680Z,38.30
2017-11-12T04:51:29.878Z,32.70
2017-11-12T05:01:33.051Z,42.77
2017-11-12T05:11:36.213Z,35.53
2017-11-12T05:21:40.160Z,37.47
2017-11-12T05:31:44.084Z,32.57
2017-11-12T05:41:47.298Z,40.30
2017-11-12T05:51:50.475Z,38.40
2017-11-12T06:01:53.673Z,32.80
2017-11-12T06:11:56.854Z,41.23
2017-11-12T06:22:00.027Z,24.42
2017-11-12T06:32:03.202Z,29.55
2017-11-12T06:42:06.389Z,33.57
2017-11-12T06:52:09.619Z,37.33
2017-11-12T07:02:13.580Z,39.10
2017-11-12T07:12:16.762Z,36.93
2017-11-12T07:22:20.084Z,43.40
2017-11-12T07:32:23.284Z,43.00
2017-11-12T07:42:27.267Z,36.03
2017-11-12T07:52:30.455Z,41.43
2017-11-12T08:02:33.635Z,39.23
2017-11-12T08:12:36.799Z,37.20
2017-11-12T08:22:39.957Z,37.93
2017-11-12T08:32:43.158Z,44.53
2017-11-12T08:42:46.340Z,52.90
2017-11-12T08:52:49.500Z,51.00
2017-11-12T09:02:53.441Z,53.67
2017-11-12T09:12:56.644Z,64.27
2017-11-12T09:22:59.787Z,58.30
2017-11-12T09:33:02.992Z,46.67
2017-11-12T09:43:06.204Z,59.95
2017-11-12T09:53:10.141Z,36.50
2017-11-12T10:03:13.448Z,31.80
2017-11-12T10:13:16.634Z,26.53
2017-11-12T10:23:20.681Z,13.27
2017-11-12T10:33:23.890Z,19.23
2017-11-12T10:43:28.711Z,14.97
2017-11-12T10:53:32.668Z,13.70
2017-11-12T11:03:36.671Z,10.67
2017-11-12T11:13:39.885Z,9.47
2017-11-12T11:23:43.073Z,8.77
2017-11-12T11:33:46.266Z,19.03
2017-11-12T11:43:49.468Z,9.32
2017-11-12T11:53:52.667Z,8.30
2017-11-12T12:03:55.883Z,11.30
2017-11-12T12:13:59.065Z,10.07
2017-11-12T12:24:02.236Z,6.20
2017-11-12T12:34:05.406Z,5.10
2017-11-12T12:44:08.578Z,7.90
2017-11-12T12:54:11.779Z,10.33
2017-11-12T13:04:14.933Z,7.60
2017-11-12T13:14:18.209Z,9.87
2017-11-12T13:24:22.166Z,4.73
2017-11-12T13:34:26.070Z,4.30
2017-11-12T13:44:29.264Z,5.57
2017-11-12T13:54:32.536Z,4.78
2017-11-12T14:04:35.688Z,5.77
2017-11-12T14:14:38.866Z,4.37
2017-11-12T14:24:42.837Z,10.07
2017-11-12T14:34:46.040Z,12.00
2017-11-12T14:44:49.230Z,9.60
2017-11-12T14:54:52.530Z,11.07
2017-11-12T15:04:56.459Z,6.90
2017-11-12T15:14:59.647Z,8.73
2017-11-12T15:25:02.823Z,10.20
2017-11-12T15:35:06.008Z,17.57
2017-11-12T15:45:09.206Z,17.63
2017-11-12T15:55:12.408Z,17.57
2017-11-12T16:05:15.668Z,14.75
2017-11-12T16:15:18.808Z,11.80
2017-11-12T16:25:22.024Z,15.93
2017-11-12T16:35:25.309Z,16.23
2017-11-12T16:45:28.551Z,17.40
2017-11-12T16:55:31.731Z,16.50
2017-11-12T17:05:34.921Z,9.60
2017-11-12T17:15:38.068Z,7.67
2017-11-12T17:25:42.026Z,15.32
2017-11-12T17:35:45.221Z,10.80
2017-11-12T17:45:48.441Z,6.80
2017-11-12T17:55:51.639Z,5.43
2017-11-12T18:05:54.825Z,4.67
2017-11-12T18:15:58.045Z,6.10
2017-11-12T18:26:01.251Z,6.27
2017-11-12T18:36:04.430Z,10.70
2017-11-12T18:46:07.632Z,11.60
2017-11-12T19:16:44.684Z,14.70
2017-11-12T19:26:48.341Z,14.40
2017-11-12T19:36:51.506Z,17.90
2017-11-12T19:46:54.747Z,11.17
2017-11-12T19:56:57.946Z,11.60
2017-11-12T20:07:01.904Z,16.67
2017-11-12T20:17:05.887Z,15.63
2017-11-12T20:27:09.263Z,15.23
2017-11-12T20:37:12.444Z,21.60
2017-11-12T20:47:16.362Z,19.00
2017-11-12T20:57:19.519Z,20.20
2017-11-12T21:07:22.699Z,23.65
2017-11-12T21:17:25.888Z,23.67
2017-11-12T21:27:30.944Z,17.90
2017-11-12T21:37:35.550Z,16.40
2017-11-12T21:47:38.787Z,12.02
2017-11-12T21:57:41.992Z,12.57
2017-11-12T22:07:45.280Z,14.10
2017-11-12T22:17:48.429Z,14.50
2017-11-12T22:27:52.386Z,15.07
2017-11-12T22:37:56.339Z,15.27
2017-11-12T22:48:00.251Z,21.60
2017-11-12T22:58:03.455Z,23.70
2017-11-12T23:08:06.676Z,15.70
2017-11-12T23:18:09.878Z,19.45
2017-11-12T23:28:13.044Z,20.93
2017-11-12T23:38:17.020Z,22.83
2017-11-12T23:48:20.199Z,26.00
2017-11-12T23:58:23.392Z,24.40
